createdAt,value
2018-09-26T00:00:24.148Z,22.06
2018-09-26T00:00:55.750Z,22.06
2018-09-26T00:01:27.350Z,22.06
2018-09-26T00:01:58.944Z,22.05
2018-09-26T00:02:30.546Z,22.05
2018-09-26T00:03:02.158Z,22.05
2018-09-26T00:03:33.748Z,22.04
2018-09-26T00:04:05.383Z,22.04
2018-09-26T00:04:36.986Z,22.04
2018-09-26T00:05:08.595Z,22.04
2018-09-26T00:05:40.174Z,22.04
2018-09-26T00:06:11.768Z,22.03
2018-09-26T00:06:43.361Z,22.03
2018-09-26T00:07:14.952Z,22.04
2018-09-26T00:07:46.558Z,22.03
2018-09-26T00:08:18.194Z,22.02
2018-09-26T00:08:49.789Z,22.02
2018-09-26T00:09:21.380Z,22.02
2018-09-26T00:09:53.014Z,22.01
2018-09-26T00:10:24.609Z,22.01
2018-09-26T00:10:56.196Z,22.00
2018-09-26T00:11:27.780Z,22.01
2018-09-26T00:11:59.383Z,22.01
2018-09-26T00:12:30.964Z,22.01
2018-09-26T00:13:02.564Z,22.01
2018-09-26T00:13:34.156Z,22.01
2018-09-26T00:14:05.758Z,22.02
2018-09-26T00:14:37.362Z,22.02
2018-09-26T00:15:08.981Z,22.01
2018-09-26T00:15:40.572Z,22.01
2018-09-26T00:16:12.178Z,22.01
2018-09-26T00:16:43.772Z,22.00
2018-09-26T00:17:15.378Z,22.00
2018-09-26T00:17:46.968Z,22.00
2018-09-26T00:18:18.574Z,22.00
2018-09-26T00:18:50.154Z,21.99
2018-09-26T00:19:21.744Z,21.99
2018-09-26T00:19:53.345Z,21.99
2018-09-26T00:20:24.970Z,21.99
2018-09-26T00:20:56.563Z,21.99
2018-09-26T00:21:28.152Z,21.98
2018-09-26T00:21:59.754Z,21.98
2018-09-26T00:22:31.338Z,21.98
2018-09-26T00:23:02.924Z,21.99
2018-09-26T00:23:34.525Z,21.98
2018-09-26T00:24:06.130Z,21.98
2018-09-26T00:24:37.720Z,21.99
2018-09-26T00:25:09.343Z,21.99
2018-09-26T00:25:40.950Z,22.00
2018-09-26T00:26:12.545Z,21.99
2018-09-26T00:26:44.133Z,21.99
2018-09-26T00:27:15.746Z,21.98
2018-09-26T00:27:47.350Z,21.97
2018-09-26T00:28:18.955Z,21.96
2018-09-26T00:28:50.561Z,21.95
2018-09-26T00:29:22.173Z,21.94
2018-09-26T00:29:53.760Z,21.94
2018-09-26T00:30:25.391Z,21.94
2018-09-26T00:30:56.991Z,21.94
2018-09-26T00:31:28.589Z,21.93
2018-09-26T00:32:00.194Z,21.92
2018-09-26T00:32:31.774Z,21.93
2018-09-26T00:33:03.375Z,21.91
2018-09-26T00:33:34.969Z,21.91
2018-09-26T00:34:06.578Z,21.91
2018-09-26T00:34:38.163Z,21.91
2018-09-26T00:35:09.756Z,21.90
2018-09-26T00:35:41.361Z,21.90
2018-09-26T00:36:13.109Z,21.88
2018-09-26T00:36:44.564Z,21.90
2018-09-26T00:37:16.167Z,21.89
2018-09-26T00:37:47.800Z,21.90
2018-09-26T00:38:19.386Z,21.90
2018-09-26T00:38:51.004Z,21.91
2018-09-26T00:39:22.612Z,21.92
2018-09-26T00:39:54.216Z,21.91
2018-09-26T00:40:25.813Z,21.91
2018-09-26T00:40:57.424Z,21.90
2018-09-26T00:41:29.026Z,21.92
2018-09-26T00:42:00.617Z,21.91
2018-09-26T00:42:32.208Z,21.91
2018-09-26T00:43:03.784Z,21.92
2018-09-26T00:43:35.386Z,21.95
2018-09-26T00:44:06.990Z,21.97
2018-09-26T00:44:38.579Z,21.99
2018-09-26T00:45:10.155Z,21.99
2018-09-26T00:45:41.749Z,22.02
2018-09-26T00:46:13.340Z,22.03
2018-09-26T00:46:44.946Z,22.04
2018-09-26T00:47:16.546Z,22.04
2018-09-26T00:47:48.142Z,22.05
2018-09-26T00:48:19.736Z,22.06
2018-09-26T00:48:51.345Z,22.06
2018-09-26T00:49:22.928Z,22.07
2018-09-26T00:49:54.534Z,22.07
2018-09-26T00:50:26.283Z,22.07
2018-09-26T00:50:57.888Z,22.10
2018-09-26T00:51:29.491Z,22.11
2018-09-26T00:52:01.089Z,22.11
2018-09-26T00:52:32.680Z,22.12
2018-09-26T00:53:04.272Z,22.12
2018-09-26T00:53:35.879Z,22.12
2018-09-26T00:54:07.488Z,22.13
2018-09-26T00:54:39.089Z,22.14
2018-09-26T00:55:10.688Z,22.13
2018-09-26T00:55:42.491Z,22.14
2018-09-26T00:56:14.081Z,22.14
2018-09-26T00:56:45.672Z,22.14
2018-09-26T00:57:17.250Z,22.14
2018-09-26T00:57:48.837Z,22.13
2018-09-26T00:58:20.431Z,22.13
2018-09-26T00:58:52.031Z,22.12
2018-09-26T00:59:23.620Z,22.10
2018-09-26T00:59:55.222Z,22.10
2018-09-26T01:00:26.809Z,22.08
2018-09-26T01:00:58.431Z,22.08
2018-09-26T01:01:30.009Z,22.06
2018-09-26T01:02:01.597Z,22.06
2018-09-26T01:02:33.169Z,22.06
2018-09-26T01:03:04.761Z,22.04
2018-09-26T01:03:36.357Z,22.04
2018-09-26T01:04:07.948Z,22.03
2018-09-26T01:04:39.525Z,22.03
2018-09-26T01:05:11.093Z,22.02
2018-09-26T01:05:42.692Z,21.92
2018-09-26T01:06:14.285Z,22.01
2018-09-26T01:06:45.878Z,22.01
2018-09-26T01:07:17.473Z,22.00
2018-09-26T01:07:49.046Z,21.99
2018-09-26T01:08:20.613Z,21.99
2018-09-26T01:08:52.204Z,21.98
2018-09-26T01:09:23.773Z,21.98
2018-09-26T01:09:55.364Z,21.97
2018-09-26T01:10:26.957Z,21.97
2018-09-26T01:10:58.532Z,21.96
2018-09-26T01:11:30.124Z,21.95
2018-09-26T01:12:01.689Z,21.95
2018-09-26T01:12:33.285Z,21.95
2018-09-26T01:13:04.862Z,21.95
2018-09-26T01:13:36.448Z,21.94
2018-09-26T01:14:08.021Z,21.93
2018-09-26T01:14:39.589Z,21.93
2018-09-26T01:15:11.191Z,21.93
2018-09-26T01:15:42.794Z,21.92
2018-09-26T01:16:14.413Z,21.91
2018-09-26T01:16:46.014Z,21.93
2018-09-26T01:17:17.605Z,21.93
2018-09-26T01:17:49.192Z,21.90
2018-09-26T01:18:20.843Z,21.93
2018-09-26T01:18:52.425Z,21.93
2018-09-26T01:19:24.020Z,21.93
2018-09-26T01:19:55.592Z,21.92
2018-09-26T01:20:27.185Z,21.93
2018-09-26T01:20:58.781Z,21.93
2018-09-26T01:21:30.401Z,21.93
2018-09-26T01:22:01.996Z,21.93
2018-09-26T01:22:33.569Z,21.94
2018-09-26T01:23:05.136Z,21.94
2018-09-26T01:23:36.704Z,21.93
2018-09-26T01:24:08.273Z,21.93
2018-09-26T01:24:39.862Z,21.92
2018-09-26T01:25:11.456Z,21.92
2018-09-26T01:25:43.049Z,21.92
2018-09-26T01:26:14.648Z,21.90
2018-09-26T01:26:46.217Z,21.93
2018-09-26T01:27:17.789Z,21.93
2018-09-26T01:27:49.372Z,21.92
2018-09-26T01:28:20.947Z,21.92
2018-09-26T01:28:52.517Z,21.92
2018-09-26T01:29:24.121Z,21.93
2018-09-26T01:29:55.717Z,21.92
2018-09-26T01:30:27.313Z,21.92
2018-09-26T01:30:58.905Z,21.92
2018-09-26T01:31:30.534Z,21.94
2018-09-26T01:32:02.124Z,21.94
2018-09-26T01:32:33.726Z,21.91
2018-09-26T01:33:05.316Z,21.92
2018-09-26T01:33:36.922Z,21.90
2018-09-26T01:34:08.527Z,21.88
2018-09-26T01:34:40.116Z,21.85
2018-09-26T01:35:11.708Z,21.83
2018-09-26T01:35:43.356Z,21.81
2018-09-26T01:36:14.948Z,21.80
2018-09-26T01:36:46.584Z,21.78
2018-09-26T01:37:18.186Z,21.77
2018-09-26T01:37:49.777Z,21.76
2018-09-26T01:38:21.368Z,21.75
2018-09-26T01:38:52.960Z,21.75
2018-09-26T01:39:24.563Z,21.75
2018-09-26T01:39:56.161Z,21.75
2018-09-26T01:40:27.738Z,21.75
2018-09-26T01:40:59.332Z,21.75
2018-09-26T01:41:31.013Z,21.74
2018-09-26T01:42:02.583Z,21.75
2018-09-26T01:42:34.171Z,21.74
2018-09-26T01:43:05.775Z,21.73
2018-09-26T01:43:37.387Z,21.73
2018-09-26T01:44:08.987Z,21.73
2018-09-26T01:44:40.590Z,21.72
2018-09-26T01:45:12.198Z,21.72
2018-09-26T01:45:43.806Z,21.72
2018-09-26T01:46:15.413Z,21.72
2018-09-26T01:46:47.138Z,21.71
2018-09-26T01:47:18.743Z,21.71
2018-09-26T01:47:50.322Z,21.68
2018-09-26T01:48:21.930Z,21.70
2018-09-26T01:48:53.539Z,21.69
2018-09-26T01:49:25.119Z,21.68
2018-09-26T01:49:56.722Z,21.68
2018-09-26T01:50:28.326Z,21.67
2018-09-26T01:50:59.931Z,21.67
2018-09-26T01:51:31.544Z,21.67
2018-09-26T01:52:03.164Z,21.67
2018-09-26T01:52:34.767Z,21.67
2018-09-26T01:53:06.356Z,21.66
2018-09-26T01:53:37.957Z,21.65
2018-09-26T01:54:09.548Z,21.65
2018-09-26T01:54:41.139Z,21.65
2018-09-26T01:55:12.728Z,21.65
2018-09-26T01:55:44.321Z,21.64
2018-09-26T01:56:15.913Z,21.64
2018-09-26T01:56:47.514Z,21.63
2018-09-26T01:57:19.136Z,21.63
2018-09-26T01:57:50.739Z,21.65
2018-09-26T01:58:22.350Z,21.66
2018-09-26T01:58:53.935Z,21.68
2018-09-26T01:59:25.547Z,21.69
2018-09-26T01:59:57.150Z,21.70
2018-09-26T02:00:28.755Z,21.76
2018-09-26T02:01:00.362Z,21.72
2018-09-26T02:01:31.972Z,21.64
2018-09-26T02:02:03.700Z,21.53
2018-09-26T02:02:35.310Z,21.44
2018-09-26T02:03:06.954Z,21.34
2018-09-26T02:03:38.558Z,21.30
2018-09-26T02:04:10.172Z,21.27
2018-09-26T02:04:41.782Z,21.29
2018-09-26T02:05:13.378Z,21.29
2018-09-26T02:05:44.972Z,21.31
2018-09-26T02:06:16.569Z,21.33
2018-09-26T02:06:48.212Z,21.35
2018-09-26T02:07:19.804Z,21.36
2018-09-26T02:07:51.392Z,21.41
2018-09-26T02:08:23.010Z,21.45
2018-09-26T02:08:54.605Z,21.50
2018-09-26T02:09:26.246Z,21.53
2018-09-26T02:09:57.832Z,21.57
2018-09-26T02:10:29.438Z,21.58
2018-09-26T02:11:01.042Z,21.62
2018-09-26T02:11:32.636Z,21.64
2018-09-26T02:12:04.238Z,21.66
2018-09-26T02:12:35.815Z,21.69
2018-09-26T02:13:07.422Z,21.72
2018-09-26T02:13:39.091Z,21.73
2018-09-26T02:14:10.698Z,21.75
2018-09-26T02:14:42.295Z,21.75
2018-09-26T02:15:13.905Z,21.76
2018-09-26T02:15:45.511Z,21.77
2018-09-26T02:16:17.118Z,21.78
2018-09-26T02:16:48.715Z,21.78
2018-09-26T02:17:20.324Z,21.77
2018-09-26T02:17:51.926Z,21.77
2018-09-26T02:18:23.521Z,21.76
2018-09-26T02:18:55.154Z,21.75
2018-09-26T02:19:26.744Z,21.74
2018-09-26T02:19:58.428Z,21.73
2018-09-26T02:20:30.074Z,21.72
2018-09-26T02:21:01.655Z,21.71
2018-09-26T02:21:33.259Z,21.70
2018-09-26T02:22:04.866Z,21.70
2018-09-26T02:22:36.446Z,21.70
2018-09-26T02:23:08.056Z,21.69
2018-09-26T02:23:39.692Z,21.69
2018-09-26T02:24:11.283Z,21.69
2018-09-26T02:24:42.930Z,21.67
2018-09-26T02:25:14.534Z,21.67
2018-09-26T02:25:46.128Z,21.66
2018-09-26T02:26:17.734Z,21.65
2018-09-26T02:26:49.328Z,21.66
2018-09-26T02:27:20.920Z,21.65
2018-09-26T02:27:52.522Z,21.65
2018-09-26T02:28:24.116Z,21.65
2018-09-26T02:28:55.763Z,21.64
2018-09-26T02:29:27.371Z,21.63
2018-09-26T02:29:58.969Z,21.62
2018-09-26T02:30:30.616Z,21.62
2018-09-26T02:31:02.253Z,21.63
2018-09-26T02:31:33.843Z,21.63
2018-09-26T02:32:05.430Z,21.63
2018-09-26T02:32:37.035Z,21.52
2018-09-26T02:33:08.637Z,21.65
2018-09-26T02:33:40.216Z,21.65
2018-09-26T02:34:11.812Z,21.68
2018-09-26T02:34:43.415Z,21.70
2018-09-26T02:35:15.048Z,21.71
2018-09-26T02:35:46.636Z,21.73
2018-09-26T02:36:18.287Z,21.76
2018-09-26T02:36:49.884Z,21.79
2018-09-26T02:37:21.489Z,21.81
2018-09-26T02:37:53.120Z,21.86
2018-09-26T02:38:24.700Z,21.88
2018-09-26T02:38:56.306Z,21.95
2018-09-26T02:39:27.902Z,21.97
2018-09-26T02:39:59.503Z,22.01
2018-09-26T02:40:31.088Z,22.04
2018-09-26T02:41:02.734Z,22.14
2018-09-26T02:41:34.338Z,22.24
2018-09-26T02:42:05.947Z,22.25
2018-09-26T02:42:37.558Z,22.25
2018-09-26T02:43:09.148Z,22.23
2018-09-26T02:43:40.726Z,22.20
2018-09-26T02:44:12.330Z,22.17
2018-09-26T02:44:43.921Z,22.14
2018-09-26T02:45:15.566Z,22.12
2018-09-26T02:45:47.160Z,22.10
2018-09-26T02:46:18.803Z,22.08
2018-09-26T02:46:50.405Z,22.05
2018-09-26T02:47:22.010Z,22.02
2018-09-26T02:47:53.614Z,22.02
2018-09-26T02:48:25.199Z,22.00
2018-09-26T02:48:56.797Z,21.99
2018-09-26T02:49:28.404Z,21.98
2018-09-26T02:49:59.982Z,21.99
2018-09-26T02:50:31.581Z,22.05
2018-09-26T02:51:03.176Z,22.13
2018-09-26T02:51:34.779Z,22.25
2018-09-26T02:52:06.414Z,22.34
2018-09-26T02:52:38.065Z,22.41
2018-09-26T02:53:09.681Z,22.46
2018-09-26T02:53:41.275Z,22.47
2018-09-26T02:54:12.869Z,22.50
2018-09-26T02:54:44.450Z,22.47
2018-09-26T02:55:16.027Z,22.41
2018-09-26T02:55:47.626Z,22.36
2018-09-26T02:56:19.236Z,22.31
2018-09-26T02:56:50.828Z,22.27
2018-09-26T02:57:22.415Z,22.23
2018-09-26T02:57:54.005Z,22.20
2018-09-26T02:58:25.600Z,22.16
2018-09-26T02:58:57.201Z,22.13
2018-09-26T02:59:28.788Z,22.10
2018-09-26T03:00:00.390Z,22.07
2018-09-26T03:00:31.993Z,22.02
2018-09-26T03:01:03.576Z,21.98
2018-09-26T03:01:35.168Z,21.93
2018-09-26T03:02:06.774Z,21.90
2018-09-26T03:02:38.358Z,21.87
2018-09-26T03:03:09.998Z,21.84
2018-09-26T03:03:41.594Z,21.81
2018-09-26T03:04:13.207Z,21.79
2018-09-26T03:04:44.801Z,21.77
2018-09-26T03:05:16.406Z,21.76
2018-09-26T03:05:48.000Z,21.75
2018-09-26T03:06:19.588Z,21.74
2018-09-26T03:06:51.235Z,21.72
2018-09-26T03:07:22.829Z,21.70
2018-09-26T03:07:54.438Z,21.69
2018-09-26T03:08:26.055Z,21.68
2018-09-26T03:08:57.634Z,21.67
2018-09-26T03:09:29.292Z,21.66
2018-09-26T03:10:00.888Z,21.65
2018-09-26T03:10:32.509Z,21.63
2018-09-26T03:11:04.363Z,21.63
2018-09-26T03:11:36.251Z,21.63
2018-09-26T03:12:07.915Z,21.62
2018-09-26T03:12:39.744Z,21.61
2018-09-26T03:13:11.639Z,21.60
2018-09-26T03:13:43.537Z,21.59
2018-09-26T03:14:15.202Z,21.59
2018-09-26T03:14:46.946Z,21.58
2018-09-26T03:15:18.578Z,21.57
2018-09-26T03:15:50.182Z,21.56
2018-09-26T03:16:21.830Z,21.54
2018-09-26T03:16:53.424Z,21.52
2018-09-26T03:17:25.072Z,21.52
2018-09-26T03:17:56.659Z,21.51
2018-09-26T03:18:28.266Z,21.50
2018-09-26T03:18:59.875Z,21.49
2018-09-26T03:19:31.512Z,21.48
2018-09-26T03:20:03.108Z,21.47
2018-09-26T03:20:34.741Z,21.46
2018-09-26T03:21:06.336Z,21.46
2018-09-26T03:21:37.926Z,21.44
2018-09-26T03:22:09.520Z,21.42
2018-09-26T03:22:41.126Z,21.41
2018-09-26T03:23:12.717Z,21.41
2018-09-26T03:23:44.308Z,21.41
2018-09-26T03:24:15.896Z,21.40
2018-09-26T03:24:47.509Z,21.39
2018-09-26T03:25:19.160Z,21.39
2018-09-26T03:25:50.738Z,21.37
2018-09-26T03:26:22.333Z,21.37
2018-09-26T03:26:53.925Z,21.36
2018-09-26T03:27:25.572Z,21.35
2018-09-26T03:27:57.142Z,21.34
2018-09-26T03:28:28.737Z,21.33
2018-09-26T03:29:00.344Z,21.32
2018-09-26T03:29:31.937Z,21.31
2018-09-26T03:30:03.553Z,21.30
2018-09-26T03:30:35.199Z,21.27
2018-09-26T03:31:06.882Z,21.28
2018-09-26T03:31:38.455Z,21.27
2018-09-26T03:32:10.052Z,21.27
2018-09-26T03:32:41.644Z,21.25
2018-09-26T03:33:13.225Z,21.25
2018-09-26T03:33:44.875Z,21.25
2018-09-26T03:34:16.452Z,21.23
2018-09-26T03:34:48.054Z,21.22
2018-09-26T03:35:19.648Z,21.22
2018-09-26T03:35:51.256Z,21.21
2018-09-26T03:36:22.902Z,21.19
2018-09-26T03:36:54.497Z,21.21
2018-09-26T03:37:26.096Z,21.20
2018-09-26T03:37:57.674Z,21.19
2018-09-26T03:38:29.316Z,21.18
2018-09-26T03:39:00.904Z,21.18
2018-09-26T03:39:32.506Z,21.18
2018-09-26T03:40:04.111Z,21.17
2018-09-26T03:40:35.714Z,21.17
2018-09-26T03:41:07.318Z,21.17
2018-09-26T03:41:38.906Z,21.16
2018-09-26T03:42:10.506Z,21.16
2018-09-26T03:42:42.083Z,21.15
2018-09-26T03:43:13.670Z,21.14
2018-09-26T03:43:45.301Z,21.14
2018-09-26T03:44:16.950Z,21.13
2018-09-26T03:44:48.555Z,21.13
2018-09-26T03:45:20.143Z,21.11
2018-09-26T03:45:51.735Z,21.09
2018-09-26T03:46:23.332Z,21.11
2018-09-26T03:46:54.924Z,21.10
2018-09-26T03:47:26.527Z,21.09
2018-09-26T03:47:58.160Z,21.09
2018-09-26T03:48:29.771Z,21.08
2018-09-26T03:49:01.405Z,21.08
2018-09-26T03:49:33.006Z,21.08
2018-09-26T03:50:04.604Z,21.06
2018-09-26T03:50:36.198Z,21.05
2018-09-26T03:51:07.783Z,21.05
2018-09-26T03:51:39.376Z,21.04
2018-09-26T03:52:10.984Z,21.03
2018-09-26T03:52:42.595Z,21.02
2018-09-26T03:53:14.190Z,21.03
2018-09-26T03:53:45.807Z,21.03
2018-09-26T03:54:17.441Z,21.02
2018-09-26T03:54:49.028Z,21.01
2018-09-26T03:55:20.630Z,21.01
2018-09-26T03:55:52.222Z,21.01
2018-09-26T03:56:23.861Z,21.01
2018-09-26T03:56:55.443Z,21.00
2018-09-26T03:57:27.046Z,21.00
2018-09-26T03:57:58.636Z,20.99
2018-09-26T03:58:30.243Z,20.99
2018-09-26T03:59:01.846Z,20.99
2018-09-26T03:59:33.441Z,20.98
2018-09-26T04:00:05.024Z,20.97
2018-09-26T04:00:36.625Z,20.98
2018-09-26T04:01:08.252Z,20.97
2018-09-26T04:01:39.859Z,20.96
2018-09-26T04:02:11.452Z,20.97
2018-09-26T04:02:43.056Z,20.96
2018-09-26T04:03:14.656Z,20.96
2018-09-26T04:03:46.248Z,20.94
2018-09-26T04:04:17.850Z,20.95
2018-09-26T04:04:49.475Z,20.95
2018-09-26T04:05:21.091Z,20.87
2018-09-26T04:05:52.694Z,20.95
2018-09-26T04:06:24.284Z,20.95
2018-09-26T04:06:56.140Z,20.94
2018-09-26T04:07:27.771Z,20.94
2018-09-26T04:07:59.368Z,20.93
2018-09-26T04:08:30.952Z,20.93
2018-09-26T04:09:02.598Z,20.92
2018-09-26T04:09:34.197Z,20.91
2018-09-26T04:10:05.775Z,20.92
2018-09-26T04:10:37.382Z,20.91
2018-09-26T04:11:08.977Z,20.91
2018-09-26T04:11:40.620Z,20.90
2018-09-26T04:12:12.232Z,20.89
2018-09-26T04:12:43.906Z,20.89
2018-09-26T04:13:15.430Z,20.89
2018-09-26T04:13:47.024Z,20.89
2018-09-26T04:14:18.616Z,20.89
2018-09-26T04:14:50.216Z,20.88
2018-09-26T04:15:21.823Z,20.87
2018-09-26T04:15:53.430Z,20.87
2018-09-26T04:16:25.038Z,20.87
2018-09-26T04:16:56.680Z,20.86
2018-09-26T04:17:28.276Z,20.86
2018-09-26T04:17:59.872Z,20.86
2018-09-26T04:18:31.468Z,20.86
2018-09-26T04:19:03.065Z,20.86
2018-09-26T04:19:34.677Z,20.86
2018-09-26T04:20:06.269Z,20.86
2018-09-26T04:20:37.875Z,20.86
2018-09-26T04:21:09.469Z,20.86
2018-09-26T04:21:41.119Z,20.85
2018-09-26T04:22:12.729Z,20.85
2018-09-26T04:22:44.341Z,20.86
2018-09-26T04:23:15.946Z,20.85
2018-09-26T04:23:47.538Z,20.86
2018-09-26T04:24:19.160Z,20.85
2018-09-26T04:24:50.756Z,20.86
2018-09-26T04:25:22.349Z,20.76
2018-09-26T04:25:53.955Z,20.89
2018-09-26T04:26:25.671Z,20.87
2018-09-26T04:26:57.374Z,20.91
2018-09-26T04:27:28.965Z,20.93
2018-09-26T04:28:00.465Z,20.94
2018-09-26T04:28:32.069Z,20.96
2018-09-26T04:29:03.681Z,20.99
2018-09-26T04:29:35.283Z,21.01
2018-09-26T04:30:06.910Z,21.05
2018-09-26T04:30:38.512Z,21.08
2018-09-26T04:31:10.158Z,21.11
2018-09-26T04:31:41.762Z,21.13
2018-09-26T04:32:13.357Z,21.15
2018-09-26T04:32:45.100Z,21.18
2018-09-26T04:33:16.987Z,21.19
2018-09-26T04:33:48.275Z,21.21
2018-09-26T04:34:19.875Z,21.24
2018-09-26T04:34:51.468Z,21.25
2018-09-26T04:35:23.065Z,21.27
2018-09-26T04:35:54.670Z,21.27
2018-09-26T04:36:26.282Z,21.30
2018-09-26T04:36:57.877Z,21.32
2018-09-26T04:37:29.613Z,21.34
2018-09-26T04:38:01.209Z,21.33
2018-09-26T04:38:32.854Z,21.37
2018-09-26T04:39:04.422Z,21.39
2018-09-26T04:39:36.006Z,21.40
2018-09-26T04:40:07.601Z,21.40
2018-09-26T04:40:39.203Z,21.43
2018-09-26T04:41:10.798Z,21.46
2018-09-26T04:41:42.428Z,21.47
2018-09-26T04:42:14.038Z,21.49
2018-09-26T04:42:45.646Z,21.51
2018-09-26T04:43:17.335Z,21.52
2018-09-26T04:43:48.886Z,21.53
2018-09-26T04:44:20.480Z,21.55
2018-09-26T04:44:52.066Z,21.56
2018-09-26T04:45:23.667Z,21.58
2018-09-26T04:45:55.260Z,21.59
2018-09-26T04:46:26.848Z,21.59
2018-09-26T04:46:58.426Z,21.60
2018-09-26T04:47:30.025Z,21.60
2018-09-26T04:48:01.664Z,21.61
2018-09-26T04:48:33.246Z,21.61
2018-09-26T04:49:04.841Z,21.62
2018-09-26T04:49:36.446Z,21.62
2018-09-26T04:50:08.051Z,21.59
2018-09-26T04:50:39.695Z,21.62
2018-09-26T04:51:11.295Z,21.62
2018-09-26T04:51:42.903Z,21.62
2018-09-26T04:52:14.496Z,21.62
2018-09-26T04:52:46.089Z,21.61
2018-09-26T04:53:17.735Z,21.63
2018-09-26T04:53:49.314Z,21.63
2018-09-26T04:54:20.909Z,21.62
2018-09-26T04:54:52.522Z,21.62
2018-09-26T04:55:24.136Z,21.62
2018-09-26T04:55:55.715Z,21.62
2018-09-26T04:56:27.315Z,21.62
2018-09-26T04:56:58.908Z,21.61
2018-09-26T04:57:30.533Z,21.60
2018-09-26T04:58:02.245Z,21.59
2018-09-26T04:58:33.761Z,21.59
2018-09-26T04:59:05.371Z,21.59
2018-09-26T04:59:36.978Z,21.58
2018-09-26T05:00:08.573Z,21.58
2018-09-26T05:00:40.187Z,21.58
2018-09-26T05:01:11.776Z,21.57
2018-09-26T05:01:43.379Z,21.55
2018-09-26T05:02:14.968Z,21.53
2018-09-26T05:02:46.588Z,21.53
2018-09-26T05:03:18.185Z,21.52
2018-09-26T05:03:49.772Z,21.51
2018-09-26T05:04:21.386Z,21.50
2018-09-26T05:04:52.999Z,21.50
2018-09-26T05:05:24.588Z,21.48
2018-09-26T05:05:56.166Z,21.48
2018-09-26T05:06:27.761Z,21.48
2018-09-26T05:06:59.346Z,21.48
2018-09-26T05:07:30.958Z,21.47
2018-09-26T05:08:02.534Z,21.46
2018-09-26T05:08:34.124Z,21.44
2018-09-26T05:09:05.717Z,21.44
2018-09-26T05:09:37.346Z,21.43
2018-09-26T05:10:08.937Z,21.40
2018-09-26T05:10:40.528Z,21.41
2018-09-26T05:11:12.116Z,21.40
2018-09-26T05:11:43.721Z,21.40
2018-09-26T05:12:15.326Z,21.41
2018-09-26T05:12:46.921Z,21.40
2018-09-26T05:13:18.529Z,21.39
2018-09-26T05:13:50.135Z,21.37
2018-09-26T05:14:21.747Z,21.35
2018-09-26T05:14:53.394Z,21.34
2018-09-26T05:15:24.984Z,21.33
2018-09-26T05:15:56.594Z,21.30
2018-09-26T05:16:28.201Z,21.31
2018-09-26T05:16:59.789Z,21.30
2018-09-26T05:17:31.426Z,21.29
2018-09-26T05:18:03.034Z,21.28
2018-09-26T05:18:34.642Z,21.27
2018-09-26T05:19:06.253Z,21.27
2018-09-26T05:19:37.854Z,21.25
2018-09-26T05:20:09.449Z,21.24
2018-09-26T05:20:41.090Z,21.24
2018-09-26T05:21:12.684Z,21.23
2018-09-26T05:21:44.262Z,21.22
2018-09-26T05:22:15.860Z,21.22
2018-09-26T05:22:47.508Z,21.20
2018-09-26T05:23:19.073Z,21.20
2018-09-26T05:23:50.670Z,21.17
2018-09-26T05:24:22.278Z,21.18
2018-09-26T05:24:53.882Z,21.19
2018-09-26T05:25:25.517Z,21.18
2018-09-26T05:25:57.123Z,21.17
2018-09-26T05:26:28.704Z,21.17
2018-09-26T05:27:00.296Z,21.16
2018-09-26T05:27:31.888Z,21.15
2018-09-26T05:28:03.481Z,21.15
2018-09-26T05:28:35.098Z,21.14
2018-09-26T05:29:06.726Z,21.13
2018-09-26T05:29:38.323Z,21.12
2018-09-26T05:30:09.975Z,21.10
2018-09-26T05:30:41.562Z,21.10
2018-09-26T05:31:13.153Z,21.09
2018-09-26T05:31:44.755Z,21.08
2018-09-26T05:32:16.344Z,21.07
2018-09-26T05:32:47.979Z,21.07
2018-09-26T05:33:19.607Z,21.06
2018-09-26T05:33:51.210Z,21.03
2018-09-26T05:34:22.809Z,21.04
2018-09-26T05:34:54.405Z,21.04
2018-09-26T05:35:25.996Z,21.03
2018-09-26T05:35:57.599Z,21.03
2018-09-26T05:36:29.200Z,21.02
2018-09-26T05:37:00.788Z,21.02
2018-09-26T05:37:32.422Z,21.00
2018-09-26T05:38:04.008Z,21.00
2018-09-26T05:38:35.590Z,20.99
2018-09-26T05:39:07.223Z,20.98
2018-09-26T05:39:38.794Z,20.98
2018-09-26T05:40:10.373Z,20.97
2018-09-26T05:40:42.013Z,20.96
2018-09-26T05:41:13.612Z,20.95
2018-09-26T05:41:45.335Z,20.94
2018-09-26T05:42:16.855Z,20.94
2018-09-26T05:42:48.504Z,20.93
2018-09-26T05:43:20.150Z,20.93
2018-09-26T05:43:51.751Z,20.92
2018-09-26T05:44:23.330Z,20.92
2018-09-26T05:44:54.925Z,20.90
2018-09-26T05:45:26.521Z,20.90
2018-09-26T05:45:58.117Z,20.89
2018-09-26T05:46:29.709Z,20.88
2018-09-26T05:47:01.337Z,20.88
2018-09-26T05:47:32.978Z,20.88
2018-09-26T05:48:04.573Z,20.87
2018-09-26T05:48:36.157Z,20.86
2018-09-26T05:49:07.744Z,20.86
2018-09-26T05:49:39.325Z,20.85
2018-09-26T05:50:10.959Z,20.85
2018-09-26T05:50:42.550Z,20.84
2018-09-26T05:51:14.136Z,20.84
2018-09-26T05:51:45.785Z,20.84
2018-09-26T05:52:17.380Z,20.83
2018-09-26T05:52:48.972Z,20.83
2018-09-26T05:53:20.635Z,20.82
2018-09-26T05:53:52.228Z,20.82
2018-09-26T05:54:23.825Z,20.82
2018-09-26T05:54:55.430Z,20.81
2018-09-26T05:55:27.015Z,20.81
2018-09-26T05:55:58.658Z,20.80
2018-09-26T05:56:30.244Z,20.79
2018-09-26T05:57:01.819Z,20.79
2018-09-26T05:57:33.408Z,20.79
2018-09-26T05:58:04.990Z,20.78
2018-09-26T05:58:36.580Z,20.77
2018-09-26T05:59:08.187Z,20.77
2018-09-26T05:59:39.791Z,20.78
2018-09-26T06:00:11.387Z,20.76
2018-09-26T06:00:43.020Z,20.76
2018-09-26T06:01:14.626Z,20.75
2018-09-26T06:01:46.230Z,20.76
2018-09-26T06:02:17.864Z,20.76
2018-09-26T06:02:49.452Z,20.75
2018-09-26T06:03:21.048Z,20.75
2018-09-26T06:03:52.654Z,20.75
2018-09-26T06:04:24.255Z,20.75
2018-09-26T06:04:55.889Z,20.74
2018-09-26T06:05:27.500Z,20.74
2018-09-26T06:05:59.091Z,20.74
2018-09-26T06:06:30.687Z,20.73
2018-09-26T06:07:02.295Z,20.73
2018-09-26T06:07:33.931Z,20.73
2018-09-26T06:08:05.511Z,20.72
2018-09-26T06:08:37.155Z,20.73
2018-09-26T06:09:08.793Z,20.72
2018-09-26T06:09:40.389Z,20.72
2018-09-26T06:10:11.989Z,20.72
2018-09-26T06:10:43.585Z,20.72
2018-09-26T06:11:15.176Z,20.73
2018-09-26T06:11:46.768Z,20.73
2018-09-26T06:12:18.374Z,20.72
2018-09-26T06:12:49.995Z,20.73
2018-09-26T06:13:21.639Z,20.72
2018-09-26T06:13:53.242Z,20.73
2018-09-26T06:14:24.832Z,20.74
2018-09-26T06:14:56.435Z,20.74
2018-09-26T06:15:28.024Z,20.75
2018-09-26T06:15:59.634Z,20.76
2018-09-26T06:16:31.250Z,20.78
2018-09-26T06:17:02.849Z,20.79
2018-09-26T06:17:34.480Z,20.80
2018-09-26T06:18:06.082Z,20.83
2018-09-26T06:18:37.663Z,20.84
2018-09-26T06:19:09.259Z,20.85
2018-09-26T06:19:40.877Z,20.89
2018-09-26T06:20:12.482Z,20.91
2018-09-26T06:20:44.082Z,20.93
2018-09-26T06:21:15.690Z,20.95
2018-09-26T06:21:47.336Z,20.95
2018-09-26T06:22:18.943Z,20.99
2018-09-26T06:22:50.546Z,21.00
2018-09-26T06:23:22.135Z,21.02
2018-09-26T06:23:53.765Z,21.03
2018-09-26T06:24:25.365Z,21.06
2018-09-26T06:24:56.964Z,21.06
2018-09-26T06:25:28.547Z,21.08
2018-09-26T06:26:00.155Z,21.08
2018-09-26T06:26:31.735Z,21.10
2018-09-26T06:27:03.328Z,21.10
2018-09-26T06:27:34.962Z,21.11
2018-09-26T06:28:06.570Z,21.12
2018-09-26T06:28:38.165Z,21.13
2018-09-26T06:29:09.771Z,21.14
2018-09-26T06:29:41.361Z,21.15
2018-09-26T06:30:12.997Z,21.15
2018-09-26T06:30:44.632Z,21.18
2018-09-26T06:31:16.224Z,21.18
2018-09-26T06:31:47.811Z,21.19
2018-09-26T06:32:19.404Z,21.20
2018-09-26T06:32:51.006Z,21.21
2018-09-26T06:33:22.600Z,21.22
2018-09-26T06:33:54.196Z,21.24
2018-09-26T06:34:25.799Z,21.25
2018-09-26T06:34:57.445Z,21.26
2018-09-26T06:35:29.067Z,21.27
2018-09-26T06:36:00.660Z,21.26
2018-09-26T06:36:32.252Z,21.28
2018-09-26T06:37:03.844Z,21.29
2018-09-26T06:37:35.427Z,21.29
2018-09-26T06:38:07.002Z,21.30
2018-09-26T06:38:38.589Z,21.31
2018-09-26T06:39:10.167Z,21.32
2018-09-26T06:39:41.781Z,21.32
2018-09-26T06:40:13.387Z,21.32
2018-09-26T06:40:44.987Z,21.33
2018-09-26T06:41:16.597Z,21.33
2018-09-26T06:41:48.188Z,21.33
2018-09-26T06:42:19.800Z,21.33
2018-09-26T06:42:51.397Z,21.34
2018-09-26T06:43:23.004Z,21.35
2018-09-26T06:43:54.600Z,21.34
2018-09-26T06:44:26.196Z,21.34
2018-09-26T06:44:57.798Z,21.33
2018-09-26T06:45:29.387Z,21.34
2018-09-26T06:46:00.988Z,21.33
2018-09-26T06:46:32.567Z,21.33
2018-09-26T06:47:04.152Z,21.32